Time;durP1;ratioP1;P1;durP2;ratioP2;P2;SDS_P1;SDS_P2;PMS_P1;PMS_P2;Temp;Humidity;BMP_temperature;BMP_pressure;BME280_temperature;BME280_humidity;BME280_pressure;Samples;Min_cycle;Max_cycle;Signal;HPM_P1;HPM_P2
2022/11/01 00:00:21;;;;;;;160.40;31.65;;;;;;;11.63;70.78;99714.59;10277770;28;20050;-80
2022/11/01 00:05:22;;;;;;;244.75;41.45;;;;;;;11.63;70.84;99704.97;10278367;28;20051;-81
2022/11/01 00:10:24;;;;;;;252.25;41.70;;;;;;;11.64;70.53;99711.06;10276392;28;20066;-80
2022/11/01 00:15:26;;;;;;;139.43;29.25;;;;;;;11.62;70.70;99711.16;10276804;28;20833;-80
2022/11/01 00:20:27;;;;;;;251.25;40.10;;;;;;;11.68;70.77;99725.63;10276200;28;20065;-80
2022/11/01 00:25:29;;;;;;;166.15;33.70;;;;;;;11.67;70.47;99714.31;10278553;28;20063;-80
2022/11/01 00:30:31;;;;;;;201.07;32.20;;;;;;;11.69;70.39;99709.81;10275785;28;20055;-80
2022/11/01 00:35:35;;;;;;;159.35;36.10;;;;;;;11.64;70.51;99708.44;10276858;28;20046;-80
2022/11/01 00:40:37;;;;;;;211.98;32.10;;;;;;;11.53;70.51;99692.59;10276095;28;20054;-80
2022/11/01 00:45:41;;;;;;;304.55;47.78;;;;;;;11.52;70.57;99689.13;10278267;28;20398;-80
2022/11/01 00:50:43;;;;;;;348.52;38.58;;;;;;;11.44;70.71;99672.28;10292794;28;20061;-80
2022/11/01 00:55:44;;;;;;;214.82;26.98;;;;;;;11.25;71.10;99660.41;10277744;28;20039;-80
2022/11/01 01:00:47;;;;;;;911.60;51.42;;;;;;;11.07;71.59;99658.19;10275777;28;20406;-80
2022/11/01 01:05:49;;;;;;;545.85;36.85;;;;;;;11.10;71.57;99657.97;10275159;28;20066;-80
2022/11/01 01:10:51;;;;;;;780.20;65.05;;;;;;;11.21;71.33;99653.69;10291105;28;20054;-80
2022/11/01 01:15:53;;;;;;;366.10;42.78;;;;;;;11.29;70.77;99655.81;10274890;28;20527;-80
2022/11/01 01:21:02;;;;;;;291.83;32.20;;;;;;;11.35;71.07;99641.47;10274489;28;20047;-80
2022/11/01 01:26:09;;;;;;;446.05;40.40;;;;;;;11.40;71.14;99623.69;10275735;28;20046;-81
2022/11/01 01:31:12;;;;;;;191.32;34.03;;;;;;;11.32;71.01;99633.84;10289592;28;20397;-80
2022/11/01 01:36:13;;;;;;;82.68;29.00;;;;;;;11.10;71.34;99637.03;10274022;28;20046;-81
2022/11/01 01:46:35;;;;;;;309.57;34.90;;;;;;;11.03;71.32;99626.09;10276427;28;20057;-81
2022/11/01 01:51:37;;;;;;;72.00;28.20;;;;;;;11.06;71.43;99632.94;10274822;28;20057;-80
2022/11/01 01:56:39;;;;;;;51.05;27.48;;;;;;;11.15;71.10;99630.53;10275201;28;20055;-80
2022/11/01 02:01:41;;;;;;;286.65;28.88;;;;;;;11.19;71.05;99641.69;10273546;28;20327;-80
2022/11/01 02:06:43;;;;;;;245.80;37.47;;;;;;;11.20;71.12;99627.63;10272864;28;20504;-80
2022/11/01 02:11:44;;;;;;;162.27;34.65;;;;;;;11.23;71.16;99617.78;10272684;28;20520;-80
2022/11/01 02:16:49;;;;;;;101.90;29.13;;;;;;;11.30;70.47;99626.91;10275518;28;20058;-80
2022/11/01 02:22:24;;;;;;;125.75;33.65;;;;;;;11.19;70.78;99612.88;10273588;28;20497;-80
2022/11/01 02:27:50;;;;;;;129.60;17.30;;;;;;;11.08;71.18;99624.06;10272065;28;20055;-80
2022/11/01 02:33:21;;;;;;;31.08;19.67;;;;;;;11.13;70.79;99624.56;10273265;28;20059;-80
2022/11/01 02:38:32;;;;;;;25.95;15.38;;;;;;;11.10;70.92;99642.28;10272047;28;20055;-80
2022/11/01 02:43:47;;;;;;;;;;;;;;;10.77;71.22;99645.28;10273766;28;20424;-80
2022/11/01 02:48:50;;;;;;;38.47;21.83;;;;;;;10.91;70.93;99641.78;10271588;28;19926;-80
2022/11/01 02:53:51;;;;;;;93.65;23.48;;;;;;;10.84;70.84;99640.50;10271446;28;20531;-80
2022/11/01 02:58:53;;;;;;;147.65;29.75;;;;;;;10.74;71.30;99637.66;10271311;28;20489;-81
2022/11/01 03:03:57;;;;;;;53.80;19.75;;;;;;;10.69;71.58;99641.47;10276094;28;20065;-80
2022/11/01 03:09:03;;;;;;;21.70;14.63;;;;;;;10.84;71.46;99643.97;10276939;28;20050;-79
2022/11/01 03:14:20;;;;;;;27.52;17.23;;;;;;;10.95;71.35;99649.31;10276927;28;20433;-80
2022/11/01 03:19:50;;;;;;;53.08;25.40;;;;;;;10.93;71.02;99640.72;10276901;28;20529;-80
2022/11/01 03:25:01;;;;;;;146.75;27.98;;;;;;;11.02;71.00;99649.75;10277221;28;20055;-81
2022/11/01 03:30:05;;;;;;;68.38;22.98;;;;;;;11.00;70.96;99668.19;10275233;28;20405;-80
2022/11/01 03:35:12;;;;;;;36.38;18.45;;;;;;;10.95;70.95;99659.78;10277247;28;20052;-80
2022/11/01 03:40:17;;;;;;;41.92;22.08;;;;;;;10.95;71.13;99662.41;10277814;28;20054;-80
2022/11/01 03:45:23;;;;;;;48.70;24.33;;;;;;;11.03;70.75;99664.53;10291758;28;20054;-80
2022/11/01 03:50:29;;;;;;;;;;;;;;;10.74;71.38;99671.66;10290778;28;20047;-80
2022/11/01 03:55:31;;;;;;;27.02;18.38;;;;;;;11.04;71.06;99674.94;10282580;28;21445;-80
2022/11/01 04:00:39;;;;;;;21.52;15.20;;;;;;;10.98;71.09;99671.84;10284926;28;20050;-80
2022/11/01 04:05:41;;;;;;;25.35;17.13;;;;;;;11.05;71.08;99673.16;10280290;28;20066;-80
2022/11/01 04:10:43;;;;;;;27.20;18.15;;;;;;;11.05;71.32;99684.44;10278218;28;20054;-80
2022/11/01 04:21:15;;;;;;;29.03;18.90;;;;;;;11.24;71.07;99697.16;10277777;28;20051;-80
2022/11/01 04:26:20;;;;;;;26.48;16.15;;;;;;;11.29;70.81;99701.13;10277307;28;20058;-80
2022/11/01 04:31:30;;;;;;;35.65;21.85;;;;;;;11.34;70.98;99702.66;10276949;28;20425;-80
2022/11/01 04:36:32;;;;;;;24.77;15.63;;;;;;;11.32;70.92;99698.34;10277671;28;20043;-79
2022/11/01 04:41:33;;;;;;;41.08;24.13;;;;;;;11.35;70.98;99701.69;10276857;28;20047;-80
2022/11/01 04:46:35;;;;;;;21.98;13.93;;;;;;;11.36;70.64;99706.00;10277925;28;20511;-80
2022/11/01 04:51:39;;;;;;;24.55;16.45;;;;;;;11.35;70.80;99717.41;10277100;28;20055;-79
2022/11/01 04:56:42;;;;;;;25.95;17.08;;;;;;;11.32;71.04;99722.84;10276323;28;20046;-80
2022/11/01 05:01:44;;;;;;;29.27;19.58;;;;;;;11.37;71.17;99718.13;10277812;28;20061;-80
2022/11/01 05:06:45;;;;;;;26.73;18.88;;;;;;;11.45;70.77;99732.41;10274366;28;20086;-80
2022/11/01 05:11:47;;;;;;;28.77;18.27;;;;;;;11.40;71.01;99734.47;10276266;28;20047;-79
2022/11/01 05:16:49;;;;;;;32.70;20.15;;;;;;;11.41;71.06;99730.94;10276274;28;20053;-80
2022/11/01 05:21:51;;;;;;;33.17;18.60;;;;;;;11.39;71.08;99729.34;10275529;28;20042;-80
2022/11/01 05:26:53;;;;;;;27.88;16.50;;;;;;;11.18;70.98;99739.44;10276344;28;20065;-80
2022/11/01 05:31:54;;;;;;;20.90;13.52;;;;;;;11.09;71.43;99740.06;10274709;28;20137;-80
2022/11/01 05:36:56;;;;;;;34.30;19.50;;;;;;;11.10;71.56;99744.34;10273758;28;20141;-80
2022/11/01 05:41:58;;;;;;;26.63;15.93;;;;;;;11.12;71.73;99748.53;10276573;28;20054;-80
2022/11/01 05:47:04;;;;;;;28.88;18.92;;;;;;;11.21;71.84;99736.63;10276259;28;20047;-80
2022/11/01 05:52:06;;;;;;;27.98;15.95;;;;;;;11.23;71.94;99746.03;10276021;28;20523;-80
2022/11/01 05:57:07;;;;;;;20.88;13.20;;;;;;;11.32;72.30;99749.84;10274029;28;20509;-80
2022/11/01 06:02:09;;;;;;;14.82;10.15;;;;;;;11.54;72.52;99757.16;10273876;28;20064;-80
2022/11/01 06:07:11;;;;;;;18.27;12.10;;;;;;;11.71;72.31;99754.22;10274917;28;20535;-80
2022/11/01 06:12:13;;;;;;;21.75;14.15;;;;;;;11.71;71.75;99760.31;10273860;28;20050;-80
2022/11/01 06:17:14;;;;;;;20.55;10.38;;;;;;;11.71;72.89;99769.94;10271927;28;20050;-80
2022/11/01 06:22:16;;;;;;;21.90;11.23;;;;;;;11.95;73.01;99776.16;10274085;28;20062;-81
2022/11/01 06:27:18;;;;;;;13.93;6.93;;;;;;;12.15;73.33;99776.47;10271693;28;20077;-81
2022/11/01 06:32:26;;;;;;;11.65;6.13;;;;;;;12.41;73.66;99787.84;10268265;28;20061;-80
2022/11/01 06:37:29;;;;;;;10.15;6.70;;;;;;;12.60;73.39;99790.03;10272903;28;20059;-80
2022/11/01 06:42:35;;;;;;;11.02;6.75;;;;;;;12.74;73.09;99785.44;10269408;28;20070;-80
2022/11/01 06:47:45;;;;;;;15.63;9.07;;;;;;;12.71;72.55;99797.97;10268169;28;20047;-80
2022/11/01 06:52:50;;;;;;;12.48;6.47;;;;;;;12.88;72.81;99805.50;10269305;28;20655;-80
2022/11/01 06:57:57;;;;;;;11.55;5.65;;;;;;;13.05;72.88;99820.84;10268735;28;21097;-80
2022/11/01 07:03:05;;;;;;;10.82;5.53;;;;;;;13.23;72.59;99842.34;10267515;28;20047;-81
2022/11/01 07:08:11;;;;;;;7.80;5.57;;;;;;;13.43;72.03;99834.72;10268121;28;20078;-81
2022/11/01 07:13:15;;;;;;;14.65;6.07;;;;;;;13.61;71.84;99841.28;10265184;28;20051;-80
2022/11/01 07:18:19;;;;;;;11.18;5.82;;;;;;;13.72;71.26;99843.09;10272576;28;20093;-80
2022/11/01 07:23:24;;;;;;;10.55;4.40;;;;;;;13.78;71.29;99847.88;10270545;28;20054;-80
2022/11/01 07:28:27;;;;;;;8.30;4.90;;;;;;;13.85;71.42;99858.78;10273314;28;20051;-80
2022/11/01 07:33:36;;;;;;;9.27;4.55;;;;;;;14.03;70.66;99855.63;10277457;28;20055;-80
2022/11/01 07:38:37;;;;;;;13.40;5.25;;;;;;;14.09;70.60;99873.56;10280756;28;20051;-81
2022/11/01 07:43:39;;;;;;;11.02;4.53;;;;;;;14.08;70.71;99879.81;10280616;28;21045;-82
2022/11/01 07:48:41;;;;;;;8.65;3.83;;;;;;;14.13;70.08;99882.06;10281147;28;20047;-82
2022/11/01 07:53:42;;;;;;;7.43;3.47;;;;;;;14.19;69.89;99890.34;10280446;28;20062;-81
2022/11/01 07:58:44;;;;;;;9.80;4.28;;;;;;;14.22;69.58;99886.66;10279534;28;20050;-81
2022/11/01 08:03:48;;;;;;;7.03;3.40;;;;;;;14.28;69.35;99896.72;10275552;28;20058;-82
2022/11/01 08:08:49;;;;;;;8.88;3.60;;;;;;;14.33;69.15;99905.91;10277105;28;20086;-82
2022/11/01 08:13:51;;;;;;;7.80;3.88;;;;;;;14.38;68.87;99910.84;10277925;28;20425;-82
2022/11/01 08:18:53;;;;;;;9.07;3.70;;;;;;;14.40;68.51;99920.31;10276301;28;20050;-82
2022/11/01 08:23:54;;;;;;;5.15;3.28;;;;;;;14.45;67.76;99933.94;10277791;28;20050;-82
2022/11/01 08:28:56;;;;;;;9.05;2.85;;;;;;;14.48;66.36;99925.81;10278379;28;20433;-82
2022/11/01 08:33:58;;;;;;;8.48;2.50;;;;;;;14.49;65.43;99930.16;10279491;28;20460;-82
2022/11/01 08:39:00;;;;;;;6.05;2.60;;;;;;;14.45;64.29;99933.13;10283067;28;20047;-82
2022/11/01 08:44:02;;;;;;;5.43;2.75;;;;;;;14.60;63.74;99947.75;10294804;28;20046;-81
2022/11/01 08:49:38;;;;;;;6.68;2.28;;;;;;;14.82;61.75;99957.50;10291431;28;20057;-81
2022/11/01 08:54:39;;;;;;;12.07;2.30;;;;;;;15.00;62.09;99956.09;10274713;28;20061;-82
2022/11/01 08:59:41;;;;;;;7.68;2.25;;;;;;;15.08;61.58;99958.97;10275519;28;20042;-81
2022/11/01 09:04:43;;;;;;;7.00;2.00;;;;;;;15.07;60.63;99952.00;10277402;28;20417;-82
2022/11/01 09:09:45;;;;;;;7.15;1.90;;;;;;;15.08;60.55;99961.59;10275900;28;20050;-82
2022/11/01 09:14:47;;;;;;;4.75;1.92;;;;;;;15.13;58.62;99972.59;10273722;28;20050;-81
2022/11/01 09:19:49;;;;;;;8.57;1.80;;;;;;;14.95;54.65;99989.84;10274106;28;20047;-81
2022/11/01 09:24:54;;;;;;;4.22;1.40;;;;;;;14.87;52.34;99987.78;10275144;28;20057;-81
2022/11/01 09:29:55;;;;;;;4.72;1.33;;;;;;;14.84;51.37;99981.94;10275438;28;20484;-81
2022/11/01 09:34:57;;;;;;;9.18;2.17;;;;;;;14.55;48.77;99998.13;10270242;28;20053;-81
2022/11/01 09:39:59;;;;;;;7.63;1.42;;;;;;;14.58;49.37;100016.31;10274803;28;20042;-79
2022/11/01 09:45:08;;;;;;;5.18;1.40;;;;;;;14.62;48.59;100016.06;10273997;28;20578;-79
2022/11/01 09:50:22;;;;;;;4.75;1.25;;;;;;;14.53;48.87;100015.00;10272712;28;20051;-79
2022/11/01 09:55:38;;;;;;;4.82;1.25;;;;;;;14.54;48.41;100033.28;10273588;28;20054;-79
2022/11/01 10:00:45;;;;;;;4.18;1.50;;;;;;;14.56;48.10;100034.03;10288926;28;20516;-79
2022/11/01 10:05:53;;;;;;;4.35;1.38;;;;;;;14.65;48.78;100029.88;10288485;28;20125;-79
2022/11/01 10:11:06;;;;;;;2.63;1.20;;;;;;;14.69;46.08;100046.25;10288177;28;20061;-79
2022/11/01 10:16:18;;;;;;;2.63;1.33;;;;;;;14.88;47.06;100057.09;10288351;28;20355;-79
2022/11/01 10:21:22;;;;;;;5.45;1.25;;;;;;;15.03;47.33;100054.13;10288570;28;20081;-79
2022/11/01 10:26:30;;;;;;;7.55;1.48;;;;;;;15.24;47.10;100055.16;10271457;28;20472;-79
2022/11/01 10:31:38;;;;;;;4.78;1.58;;;;;;;15.44;47.15;100061.50;10272879;28;20066;-79
2022/11/01 10:36:43;;;;;;;6.68;1.55;;;;;;;15.48;48.21;100062.09;10272793;28;20504;-79
2022/11/01 10:41:51;;;;;;;5.57;1.40;;;;;;;15.39;46.97;100061.00;10273003;28;20165;-80
2022/11/01 10:46:55;;;;;;;4.38;1.38;;;;;;;15.30;47.29;100053.81;10271723;28;20101;-80
2022/11/01 10:52:06;;;;;;;5.15;1.30;;;;;;;15.18;46.90;100052.97;10271157;28;20058;-79
2022/11/01 10:57:40;;;;;;;6.97;1.60;;;;;;;15.02;46.20;100051.63;10271012;28;20513;-79
2022/11/01 11:02:46;;;;;;;2.65;1.00;;;;;;;14.94;45.47;100051.38;10270378;28;20055;-80
2022/11/01 11:07:48;;;;;;;3.70;1.30;;;;;;;14.93;45.71;100052.31;10279292;28;20062;-80
2022/11/01 11:12:55;;;;;;;6.05;1.52;;;;;;;14.94;44.95;100051.38;10281471;28;20141;-80
2022/11/01 11:18:00;;;;;;;4.15;1.35;;;;;;;15.05;44.84;100049.59;10277021;28;20050;-79
2022/11/01 11:23:02;;;;;;;4.85;1.40;;;;;;;15.13;44.29;100056.91;10279025;28;20109;-80
2022/11/01 11:28:05;;;;;;;3.58;1.23;;;;;;;15.25;44.35;100069.13;10277712;28;20476;-80
2022/11/01 11:33:15;;;;;;;4.30;1.42;;;;;;;15.27;42.79;100065.44;10278887;28;20058;-80
2022/11/01 11:38:17;;;;;;;4.68;1.20;;;;;;;15.39;43.70;100076.81;10279346;28;20057;-80
2022/11/01 11:43:22;;;;;;;5.63;1.42;;;;;;;15.48;42.98;100072.63;10279584;28;20054;-80
2022/11/01 11:48:23;;;;;;;6.72;1.50;;;;;;;15.48;42.77;100084.03;10296069;28;20055;-80
2022/11/01 11:53:28;;;;;;;5.28;1.30;;;;;;;15.50;41.43;100079.50;10278945;28;20054;-81
2022/11/01 11:58:38;;;;;;;4.93;1.55;;;;;;;15.58;40.81;100073.63;10275940;28;20051;-80
2022/11/01 12:03:56;;;;;;;3.53;1.35;;;;;;;15.61;39.90;100061.06;10278623;28;20047;-80
2022/11/01 12:08:59;;;;;;;4.43;1.27;;;;;;;15.60;41.34;100056.75;10277786;28;20605;-81
2022/11/01 12:14:01;;;;;;;5.25;1.20;;;;;;;15.64;41.17;100054.69;10277921;28;20612;-81
2022/11/01 12:19:04;;;;;;;5.55;1.40;;;;;;;15.50;41.04;100061.06;10279566;28;20138;-81
2022/11/01 12:24:26;;;;;;;3.92;1.15;;;;;;;15.52;39.11;100069.69;10276746;28;20061;-80
2022/11/01 12:29:53;;;;;;;4.78;1.30;;;;;;;15.64;39.48;100074.00;10292814;28;20543;-79
2022/11/01 12:34:59;;;;;;;4.50;1.42;;;;;;;15.78;39.79;100065.00;10292972;28;20061;-80
2022/11/01 12:40:04;;;;;;;4.82;1.38;;;;;;;15.85;39.36;100061.75;10276887;28;20404;-80
2022/11/01 12:45:21;;;;;;;5.07;1.50;;;;;;;15.85;39.94;100060.91;10276911;28;20057;-80
2022/11/01 12:50:41;;;;;;;4.25;1.45;;;;;;;15.76;38.92;100064.28;10276130;28;21104;-80
2022/11/01 12:55:43;;;;;;;5.93;1.45;;;;;;;15.97;40.62;100066.06;10275503;28;20050;-81
2022/11/01 13:01:18;;;;;;;5.97;1.83;;;;;;;15.96;39.91;100061.72;10273367;28;20509;-80
2022/11/01 13:06:45;;;;;;;5.25;1.20;;;;;;;16.05;40.67;100053.09;10288767;28;20054;-80
2022/11/01 13:12:16;;;;;;;4.88;1.58;;;;;;;16.05;39.60;100057.53;10291502;28;20878;-81
2022/11/01 13:17:28;;;;;;;5.60;1.70;;;;;;;16.10;40.72;100055.38;10278102;28;20468;-80
2022/11/01 13:22:33;;;;;;;5.80;1.50;;;;;;;16.15;40.53;100053.19;10274708;28;20070;-81
2022/11/01 13:27:58;;;;;;;5.40;1.30;;;;;;;16.08;37.89;100059.94;10274334;28;20070;-80
2022/11/01 13:33:14;;;;;;;7.82;1.67;;;;;;;15.93;37.51;100058.50;10274492;28;20054;-81
2022/11/01 13:38:28;;;;;;;6.13;1.70;;;;;;;15.92;38.00;100057.66;10275005;28;20057;-81
2022/11/01 13:43:41;;;;;;;9.30;1.70;;;;;;;15.94;38.54;100055.75;10290589;28;20050;-82
2022/11/01 13:48:46;;;;;;;5.05;1.38;;;;;;;15.95;38.64;100057.44;10291523;28;20057;-82
2022/11/01 13:53:54;;;;;;;6.80;1.52;;;;;;;16.01;38.74;100059.59;10274193;28;20055;-81
2022/11/01 13:58:57;;;;;;;4.25;1.50;;;;;;;15.89;38.93;100063.19;10273629;28;20069;-81
2022/11/01 14:04:17;;;;;;;5.70;1.40;;;;;;;15.82;38.49;100071.69;10275124;28;20065;-82
2022/11/01 14:09:22;;;;;;;9.68;1.70;;;;;;;15.82;39.66;100077.81;10274993;28;20717;-82
2022/11/01 14:14:44;;;;;;;6.40;1.70;;;;;;;15.72;37.50;100068.97;10275310;28;20051;-81
2022/11/01 14:19:47;;;;;;;5.75;1.77;;;;;;;15.68;38.11;100080.69;10268607;28;20501;-81
2022/11/01 14:24:56;;;;;;;5.93;1.50;;;;;;;15.57;37.84;100088.59;10288748;28;20054;-81
2022/11/01 14:29:58;;;;;;;8.82;1.90;;;;;;;15.53;38.11;100094.25;10271738;28;20046;-81
2022/11/01 14:35:03;;;;;;;8.32;1.83;;;;;;;15.41;38.45;100081.00;10271235;28;20117;-81
2022/11/01 14:40:32;;;;;;;7.32;2.03;;;;;;;15.25;37.82;100087.56;10271817;28;20134;-81
2022/11/01 14:45:38;;;;;;;7.82;1.85;;;;;;;15.27;38.68;100090.94;10271992;28;20413;-81
2022/11/01 14:51:01;;;;;;;8.00;1.65;;;;;;;15.26;39.31;100086.63;10286035;28;20103;-81
2022/11/01 14:56:22;;;;;;;6.30;1.73;;;;;;;15.20;38.99;100095.00;10269217;28;20054;-82
2022/11/01 15:01:24;;;;;;;6.05;1.80;;;;;;;15.19;39.61;100106.50;10287269;28;20500;-81
2022/11/01 15:06:29;;;;;;;9.52;2.13;;;;;;;15.02;40.22;100106.94;10271133;28;20117;-81
2022/11/01 15:11:33;;;;;;;7.25;2.05;;;;;;;14.89;40.52;100112.28;10287844;28;20125;-81
2022/11/01 15:16:35;;;;;;;5.97;1.63;;;;;;;14.75;40.68;100109.00;10271092;28;20085;-82
2022/11/01 15:21:42;;;;;;;7.03;1.75;;;;;;;14.61;41.05;100111.81;10272380;28;20062;-82
2022/11/01 15:26:48;;;;;;;7.78;2.13;;;;;;;14.48;41.75;100131.09;10272088;28;20139;-81
2022/11/01 15:31:56;;;;;;;7.28;1.88;;;;;;;14.36;41.73;100131.97;10271031;28;20529;-81
2022/11/01 15:37:17;;;;;;;9.45;2.10;;;;;;;14.19;42.30;100124.44;10270845;28;20065;-82
2022/11/01 15:42:26;;;;;;;5.90;1.80;;;;;;;14.02;43.37;100124.81;10269958;28;20062;-80
2022/11/01 15:47:28;;;;;;;7.53;2.40;;;;;;;13.91;43.85;100140.50;10273213;28;20425;-81
2022/11/01 15:52:32;;;;;;;13.82;3.92;;;;;;;13.66;44.58;100144.00;10279383;28;20054;-81
2022/11/01 15:57:43;;;;;;;14.10;4.15;;;;;;;13.46;44.69;100138.41;10295029;28;20055;-81
2022/11/01 16:03:02;;;;;;;13.93;3.45;;;;;;;13.22;45.53;100137.41;10277913;28;20173;-81
2022/11/01 16:08:07;;;;;;;13.00;2.30;;;;;;;13.07;45.83;100144.53;10277955;28;20098;-81
2022/11/01 16:13:16;;;;;;;10.40;2.03;;;;;;;12.90;46.21;100160.59;10278552;28;20150;-81
2022/11/01 16:18:22;;;;;;;8.35;2.10;;;;;;;12.71;46.83;100160.94;10279722;28;20492;-82
2022/11/01 16:23:29;;;;;;;11.65;2.50;;;;;;;12.64;48.35;100162.25;10277876;28;20431;-82
2022/11/01 16:28:38;;;;;;;8.73;2.60;;;;;;;12.52;48.54;100162.19;10277147;28;20496;-82
2022/11/01 16:33:45;;;;;;;9.10;2.17;;;;;;;12.41;48.00;100164.69;10278531;28;20063;-81
2022/11/01 16:38:52;;;;;;;9.50;2.38;;;;;;;12.30;48.27;100167.97;10277986;28;20053;-82
2022/11/01 16:43:56;;;;;;;12.57;2.30;;;;;;;12.31;48.56;100174.06;10277353;28;20412;-81
2022/11/01 16:49:04;;;;;;;9.38;2.13;;;;;;;12.16;48.84;100181.06;10278110;28;20054;-81
2022/11/01 16:54:09;;;;;;;9.57;2.45;;;;;;;12.08;49.26;100199.06;10276965;28;20516;-80
2022/11/01 16:59:16;;;;;;;12.88;2.65;;;;;;;11.96;49.43;100207.69;10277081;28;20054;-80
2022/11/01 17:04:18;;;;;;;17.33;4.45;;;;;;;11.52;50.87;100199.03;10293240;28;20055;-81
2022/11/01 17:09:21;;;;;;;15.45;4.72;;;;;;;11.27;52.05;100215.34;10276611;28;20061;-80
2022/11/01 17:14:23;;;;;;;11.88;4.30;;;;;;;11.02;52.63;100210.63;10275070;28;20050;-81
2022/11/01 17:19:30;;;;;;;8.48;3.38;;;;;;;10.96;52.63;100204.91;10274212;28;20457;-81
2022/11/01 17:24:32;;;;;;;11.38;2.88;;;;;;;10.89;52.91;100209.63;10276386;28;20059;-80
2022/11/01 17:29:33;;;;;;;11.65;2.95;;;;;;;10.84;53.91;100223.91;10275949;28;20144;-81
2022/11/01 17:34:36;;;;;;;13.20;3.25;;;;;;;10.83;53.73;100237.91;10276434;28;21391;-81
2022/11/01 17:39:38;;;;;;;11.13;3.40;;;;;;;10.74;54.26;100247.13;10270002;28;20047;-81
2022/11/01 17:44:40;;;;;;;12.95;3.20;;;;;;;10.62;54.91;100237.34;10273414;28;20074;-81
2022/11/01 17:49:43;;;;;;;9.77;3.03;;;;;;;10.56;54.59;100248.16;10272833;28;20046;-81
2022/11/01 17:54:47;;;;;;;13.45;3.38;;;;;;;10.35;55.07;100249.31;10267743;28;20725;-81
2022/11/01 17:59:50;;;;;;;12.65;3.70;;;;;;;10.02;55.99;100251.09;10273801;28;20938;-81
2022/11/01 18:04:52;;;;;;;16.45;3.72;;;;;;;10.03;56.43;100268.47;10272839;28;20047;-81
2022/11/01 18:09:55;;;;;;;16.73;3.00;;;;;;;9.91;56.93;100263.88;10288180;28;20054;-81
2022/11/01 18:15:07;;;;;;;16.63;4.38;;;;;;;9.82;57.67;100270.41;10274792;28;20055;-81
2022/11/01 18:20:44;;;;;;;15.95;4.07;;;;;;;9.78;57.41;100262.81;10273890;28;20050;-80
2022/11/01 18:26:00;;;;;;;10.98;2.70;;;;;;;9.76;57.07;100269.88;10415237;27;20645;-64
2022/11/01 18:31:30;;;;;;;11.75;2.85;;;;;;;9.54;58.03;100265.69;10381393;28;20052;-64
2022/11/01 18:36:52;;;;;;;13.02;3.35;;;;;;;9.45;58.45;100271.38;10393833;28;20636;-63
2022/11/01 18:41:54;;;;;;;13.70;3.22;;;;;;;9.41;58.76;100274.22;10411044;28;20494;-64
2022/11/01 18:47:03;;;;;;;11.65;3.53;;;;;;;9.41;59.07;100272.47;10379804;28;20056;-64
2022/11/01 18:52:16;;;;;;;13.95;3.75;;;;;;;9.31;59.49;100259.94;10399676;28;20544;-64
2022/11/01 18:57:24;;;;;;;13.40;3.78;;;;;;;9.18;59.16;100269.31;10379348;28;20042;-65
2022/11/01 19:02:26;;;;;;;15.85;4.30;;;;;;;8.97;59.85;100262.50;10382016;28;20136;-64
2022/11/01 19:07:29;;;;;;;13.93;4.75;;;;;;;8.86;60.20;100263.00;10383997;28;20068;-64
2022/11/01 19:12:53;;;;;;;16.92;6.85;;;;;;;8.78;60.63;100278.16;10385426;28;20619;-64
2022/11/01 19:18:11;;;;;;;19.42;7.63;;;;;;;8.71;61.05;100269.78;10394498;28;20076;-63
2022/11/01 19:23:37;;;;;;;20.05;7.68;;;;;;;8.59;60.83;100274.72;10389205;28;20050;-64
2022/11/01 19:28:39;;;;;;;13.77;5.03;;;;;;;8.48;60.83;100275.22;10421803;28;20064;-63
2022/11/01 19:33:44;;;;;;;13.48;5.28;;;;;;;8.48;61.46;100266.56;10407074;28;20057;-62
2022/11/01 19:38:51;;;;;;;14.88;4.68;;;;;;;8.48;61.39;100262.19;10367050;28;20048;-63
2022/11/01 19:43:57;;;;;;;15.95;5.10;;;;;;;8.43;61.82;100263.31;10356089;28;20144;-63
2022/11/01 19:49:01;;;;;;;16.10;4.80;;;;;;;8.35;61.78;100275.84;10350116;28;20054;-63
2022/11/01 19:54:10;;;;;;;21.00;10.23;;;;;;;8.21;62.55;100275.63;10349087;28;20053;-63
2022/11/01 19:59:14;;;;;;;21.42;7.25;;;;;;;8.25;62.27;100282.38;10365626;28;20050;-64
2022/11/01 20:04:28;;;;;;;16.15;5.90;;;;;;;8.18;62.44;100281.78;10371810;28;21316;-63
2022/11/01 20:09:37;;;;;;;16.05;5.63;;;;;;;8.19;62.59;100280.91;10347596;28;20570;-64
2022/11/01 20:14:39;;;;;;;17.65;6.20;;;;;;;8.19;62.78;100282.66;10364444;28;20136;-64
2022/11/01 20:19:40;;;;;;;21.50;7.60;;;;;;;8.22;62.77;100293.78;10363944;28;20399;-64
2022/11/01 20:24:42;;;;;;;20.80;7.18;;;;;;;8.10;62.84;100303.88;10371215;28;20061;-64
2022/11/01 20:29:44;;;;;;;21.75;7.47;;;;;;;8.09;63.22;100299.56;10355369;28;20050;-63
2022/11/01 20:34:45;;;;;;;19.45;6.43;;;;;;;8.16;63.04;100307.06;10354463;28;20434;-64
2022/11/01 20:39:47;;;;;;;16.95;5.78;;;;;;;8.14;62.92;100305.47;10350612;28;20057;-64
2022/11/01 20:44:49;;;;;;;18.90;5.72;;;;;;;8.12;62.99;100312.50;10348148;28;20490;-63
2022/11/01 20:49:51;;;;;;;19.08;6.05;;;;;;;8.03;63.42;100330.19;10384993;28;20494;-63
2022/11/01 20:54:54;;;;;;;15.63;5.88;;;;;;;7.97;63.64;100320.03;10348452;28;20060;-63
2022/11/01 20:59:56;;;;;;;22.85;7.65;;;;;;;7.92;63.87;100314.16;10346736;28;20056;-64
2022/11/01 21:05:13;;;;;;;17.70;6.10;;;;;;;7.93;63.64;100321.09;10350315;28;20053;-63
2022/11/01 21:10:41;;;;;;;24.92;6.68;;;;;;;7.76;64.28;100314.88;10371097;28;20422;-63
2022/11/01 21:15:44;;;;;;;15.32;5.68;;;;;;;7.83;64.00;100322.34;10348781;28;20054;-64
2022/11/01 21:20:48;;;;;;;17.88;7.43;;;;;;;7.75;64.04;100319.22;10348984;28;20522;-63
2022/11/01 21:25:52;;;;;;;22.58;8.57;;;;;;;7.79;64.55;100317.38;10351836;28;20056;-64
2022/11/01 21:30:56;;;;;;;23.60;8.93;;;;;;;7.69;64.24;100324.69;10358253;28;20045;-63
2022/11/01 21:35:57;;;;;;;22.70;8.15;;;;;;;7.58;64.81;100329.53;10350700;28;20056;-62
2022/11/01 21:40:59;;;;;;;22.05;7.25;;;;;;;7.59;64.56;100323.38;10348775;28;20046;-63
2022/11/01 21:46:01;;;;;;;21.20;5.88;;;;;;;7.61;64.85;100324.16;10347532;28;20056;-63
2022/11/01 21:51:02;;;;;;;22.55;5.93;;;;;;;7.63;64.64;100314.53;10351103;28;20042;-62
2022/11/01 21:56:04;;;;;;;20.58;6.18;;;;;;;7.54;64.59;100314.09;10373237;28;20049;-62
2022/11/01 22:01:07;;;;;;;17.23;6.35;;;;;;;7.42;64.99;100318.03;10355241;28;20049;-63
2022/11/01 22:06:08;;;;;;;19.88;6.03;;;;;;;7.48;64.91;100317.78;10358548;28;20361;-63
2022/11/01 22:11:10;;;;;;;17.75;5.63;;;;;;;7.39;65.15;100319.91;10379124;28;20552;-63
2022/11/01 22:16:12;;;;;;;19.52;6.80;;;;;;;7.31;65.36;100315.00;10351805;28;20045;-63
2022/11/01 22:21:14;;;;;;;18.80;6.70;;;;;;;7.22;65.39;100318.00;10344201;28;20053;-62
2022/11/01 22:26:15;;;;;;;15.05;6.65;;;;;;;7.22;65.66;100323.22;10367606;28;20046;-62
2022/11/01 22:31:18;;;;;;;17.92;6.60;;;;;;;7.29;65.57;100315.97;10356220;28;20053;-63
2022/11/01 22:36:28;;;;;;;17.33;6.63;;;;;;;7.45;65.64;100320.50;10355377;28;20526;-63
2022/11/01 22:41:34;;;;;;;19.77;6.90;;;;;;;7.59;65.54;100315.56;10344048;28;20054;-62
2022/11/01 22:46:56;;;;;;;18.77;7.45;;;;;;;7.58;65.24;100318.25;10343831;28;20414;-62
2022/11/01 22:52:18;;;;;;;21.25;7.03;;;;;;;7.52;65.66;100314.16;10362273;28;20046;-62
2022/11/01 22:57:22;;;;;;;17.92;6.82;;;;;;;7.54;65.22;100308.88;10358696;28;20060;-62
2022/11/01 23:02:29;;;;;;;19.98;6.43;;;;;;;7.48;65.35;100312.59;10358466;28;20050;-63
2022/11/01 23:07:44;;;;;;;16.90;6.72;;;;;;;7.51;65.42;100307.25;10395717;28;20049;-62
2022/11/01 23:18:16;;;;;;;18.92;6.40;;;;;;;7.53;65.56;100308.03;10349356;28;20077;-63
2022/11/01 23:23:19;;;;;;;19.98;8.55;;;;;;;7.51;65.41;100304.63;10352137;28;20410;-63
2022/11/01 23:28:22;;;;;;;21.77;7.97;;;;;;;7.54;65.55;100298.47;10360277;28;20046;-62
2022/11/01 23:33:32;;;;;;;24.48;8.02;;;;;;;7.59;65.35;100296.53;10369643;28;20065;-62
2022/11/01 23:38:37;;;;;;;16.80;6.95;;;;;;;7.43;65.12;100293.69;10351002;28;20383;-63